Time;durP1;ratioP1;P1;durP2;ratioP2;P2;SDS_P1;SDS_P2;PMS_P1;PMS_P2;Temp;Humidity;BMP_temperature;BMP_pressure;BME280_temperature;BME280_humidity;BME280_pressure;Samples;Min_cycle;Max_cycle;Signal;HPM_P1;HPM_P2
2023/12/02 00:01:03;;;;;;;16.13;9.05;;;;;;;;;;7381339;19;20011;-79
2023/12/02 00:03:29;;;;;;;17.20;8.57;;;;;;;;;;7404267;19;20037;-79
2023/12/02 00:05:54;;;;;;;15.57;8.07;;;;;;;;;;7383354;19;20356;-79
2023/12/02 00:08:20;;;;;;;15.48;8.10;;;;;;;;;;7382531;19;20002;-79
2023/12/02 00:10:45;;;;;;;18.77;8.50;;;;;;;;;;7381276;19;20046;-78
2023/12/02 00:13:11;;;;;;;18.55;8.63;;;;;;;;;;7377847;19;20197;-78
2023/12/02 00:15:36;;;;;;;17.25;8.88;;;;;;;;;;7377878;19;20018;-79
2023/12/02 00:18:01;;;;;;;18.88;8.57;;;;;;;;;;7401694;19;19994;-79
2023/12/02 00:20:26;;;;;;;20.98;8.77;;;;;;;;;;7378649;19;20006;-78
2023/12/02 00:22:52;;;;;;;17.05;6.90;;;;;;;;;;7378461;19;20053;-79
2023/12/02 00:25:17;;;;;;;18.13;7.57;;;;;;;;;;7378940;19;20010;-79
2023/12/02 00:27:43;;;;;;;18.55;8.13;;;;;;;;;;7384233;19;19991;-79
2023/12/02 00:30:08;;;;;;;25.20;8.68;;;;;;;;;;7408159;19;20007;-79
2023/12/02 00:32:34;;;;;;;21.95;8.85;;;;;;;;;;7385439;19;20011;-80
2023/12/02 00:34:59;;;;;;;16.15;7.50;;;;;;;;;;7385057;19;20064;-79
2023/12/02 00:37:24;;;;;;;22.73;8.48;;;;;;;;;;7385650;19;20064;-79
2023/12/02 00:39:50;;;;;;;25.30;8.90;;;;;;;;;;7383929;19;20018;-79
2023/12/02 00:42:15;;;;;;;23.42;7.07;;;;;;;;;;7404799;19;20013;-79
2023/12/02 00:44:40;;;;;;;18.23;7.68;;;;;;;;;;7382611;19;20013;-79
2023/12/02 00:47:07;;;;;;;14.90;7.55;;;;;;;;;;7381443;19;19995;-79
2023/12/02 00:49:33;;;;;;;22.70;7.95;;;;;;;;;;7383997;19;20516;-79
2023/12/02 00:51:58;;;;;;;20.67;7.40;;;;;;;;;;7394056;19;20002;-79
2023/12/02 00:54:24;;;;;;;22.35;8.23;;;;;;;;;;7411090;19;19998;-79
2023/12/02 00:56:49;;;;;;;20.92;8.73;;;;;;;;;;7392334;19;20034;-79
2023/12/02 00:59:16;;;;;;;19.88;8.05;;;;;;;;;;7394731;19;20007;-79
2023/12/02 01:01:41;;;;;;;18.40;7.93;;;;;;;;;;7389983;19;20038;-79
2023/12/02 01:04:07;;;;;;;28.58;7.75;;;;;;;;;;7392317;19;19998;-79
2023/12/02 01:06:32;;;;;;;14.25;7.47;;;;;;;;;;7417207;19;20006;-79
2023/12/02 01:08:58;;;;;;;14.57;7.35;;;;;;;;;;7388570;19;20019;-79
2023/12/02 01:11:23;;;;;;;14.60;7.50;;;;;;;;;;7387255;19;20014;-79
2023/12/02 01:13:48;;;;;;;14.30;7.18;;;;;;;;;;7383513;19;20005;-79
2023/12/02 01:16:14;;;;;;;12.82;7.22;;;;;;;;;;7386744;19;19995;-79
2023/12/02 01:18:39;;;;;;;14.20;7.35;;;;;;;;;;7386939;19;20062;-79
2023/12/02 01:21:04;;;;;;;13.80;7.40;;;;;;;;;;7407753;19;20007;-79
2023/12/02 01:23:30;;;;;;;14.25;7.50;;;;;;;;;;7385806;19;19998;-79
2023/12/02 01:25:55;;;;;;;12.57;6.22;;;;;;;;;;7386029;19;20006;-78
2023/12/02 01:28:20;;;;;;;14.88;8.05;;;;;;;;;;7385125;19;20018;-78
2023/12/02 01:30:46;;;;;;;17.15;8.30;;;;;;;;;;7386774;19;19999;-79
2023/12/02 01:33:11;;;;;;;14.30;7.70;;;;;;;;;;7409413;19;20004;-79
2023/12/02 01:35:36;;;;;;;15.43;7.85;;;;;;;;;;7399307;19;20476;-78
2023/12/02 01:38:01;;;;;;;14.57;7.97;;;;;;;;;;7402174;19;20007;-78
2023/12/02 01:40:27;;;;;;;13.73;7.07;;;;;;;;;;7402507;19;20003;-78
2023/12/02 01:42:52;;;;;;;15.52;7.57;;;;;;;;;;7400454;19;20011;-78
2023/12/02 01:45:17;;;;;;;17.63;7.25;;;;;;;;;;7417556;19;20002;-78
2023/12/02 01:47:43;;;;;;;16.30;7.45;;;;;;;;;;7395057;19;20058;-79
2023/12/02 01:50:09;;;;;;;18.60;7.95;;;;;;;;;;7394591;19;20007;-79
2023/12/02 01:52:35;;;;;;;18.52;8.65;;;;;;;;;;7394037;19;20002;-78
2023/12/02 01:55:00;;;;;;;16.60;8.35;;;;;;;;;;7392451;19;20091;-79
2023/12/02 01:57:28;;;;;;;28.60;9.43;;;;;;;;;;7411851;19;20009;-79
2023/12/02 01:59:54;;;;;;;25.48;8.50;;;;;;;;;;7386953;19;20011;-78
2023/12/02 02:02:21;;;;;;;21.73;8.05;;;;;;;;;;7385744;19;20125;-78
2023/12/02 02:04:48;;;;;;;18.25;8.13;;;;;;;;;;7385263;19;20673;-78
2023/12/02 02:07:13;;;;;;;23.40;7.65;;;;;;;;;;7385291;19;20026;-78
2023/12/02 02:09:46;;;;;;;26.60;8.55;;;;;;;;;;7384385;19;20093;-78
2023/12/02 02:12:12;;;;;;;18.63;7.25;;;;;;;;;;7404378;19;20005;-78
2023/12/02 02:14:37;;;;;;;23.65;8.30;;;;;;;;;;7377712;19;20014;-78
2023/12/02 02:17:06;;;;;;;22.98;7.85;;;;;;;;;;7383402;19;20347;-78
2023/12/02 02:19:32;;;;;;;22.15;7.63;;;;;;;;;;7382996;19;20049;-79
2023/12/02 02:21:58;;;;;;;18.45;7.72;;;;;;;;;;7382347;19;20457;-79
2023/12/02 02:24:23;;;;;;;14.65;6.68;;;;;;;;;;7401964;19;19998;-79
2023/12/02 02:26:49;;;;;;;14.98;7.05;;;;;;;;;;7379849;19;20026;-79
2023/12/02 02:29:14;;;;;;;14.23;7.18;;;;;;;;;;7383512;19;20003;-78
2023/12/02 02:31:40;;;;;;;15.43;7.63;;;;;;;;;;7383762;19;20006;-79
2023/12/02 02:34:05;;;;;;;16.95;7.70;;;;;;;;;;7381975;19;20504;-78
2023/12/02 02:36:30;;;;;;;12.85;7.07;;;;;;;;;;7417600;19;20006;-79
2023/12/02 02:38:56;;;;;;;13.30;6.97;;;;;;;;;;7395305;19;20006;-78
2023/12/02 02:41:21;;;;;;;13.30;6.55;;;;;;;;;;7396338;19;20041;-78
2023/12/02 02:43:49;;;;;;;12.43;6.40;;;;;;;;;;7392800;19;20047;-79
2023/12/02 02:46:14;;;;;;;15.60;7.00;;;;;;;;;;7394580;19;20002;-78
2023/12/02 02:48:41;;;;;;;12.98;6.10;;;;;;;;;;7389049;19;20048;-78
2023/12/02 02:51:07;;;;;;;11.48;6.25;;;;;;;;;;7409926;19;19994;-79
2023/12/02 02:53:32;;;;;;;12.02;6.00;;;;;;;;;;7384680;19;20002;-79
2023/12/02 02:55:58;;;;;;;12.57;7.10;;;;;;;;;;7389284;19;20046;-79
2023/12/02 02:58:23;;;;;;;12.82;6.88;;;;;;;;;;7387541;19;20002;-79
2023/12/02 03:00:48;;;;;;;13.43;6.60;;;;;;;;;;7390684;19;20572;-79
2023/12/02 03:03:14;;;;;;;13.45;6.88;;;;;;;;;;7420703;19;20002;-79
2023/12/02 03:05:39;;;;;;;12.73;6.38;;;;;;;;;;7397791;19;20003;-79
2023/12/02 03:08:04;;;;;;;13.93;7.47;;;;;;;;;;7401052;19;20026;-79
2023/12/02 03:10:30;;;;;;;13.10;7.18;;;;;;;;;;7399913;19;20014;-79
2023/12/02 03:12:55;;;;;;;12.63;6.75;;;;;;;;;;7396800;19;20123;-79
2023/12/02 03:15:24;;;;;;;14.55;7.25;;;;;;;;;;7422919;19;19999;-79
2023/12/02 03:17:49;;;;;;;12.85;6.03;;;;;;;;;;7395632;19;20400;-79
2023/12/02 03:20:15;;;;;;;15.63;7.22;;;;;;;;;;7392859;19;20009;-79
2023/12/02 03:22:40;;;;;;;15.60;7.38;;;;;;;;;;7390640;19;20014;-79
2023/12/02 03:25:06;;;;;;;12.20;6.32;;;;;;;;;;7384018;19;20046;-79
2023/12/02 03:27:31;;;;;;;11.98;6.72;;;;;;;;;;7407508;19;20028;-79
2023/12/02 03:29:57;;;;;;;22.00;7.40;;;;;;;;;;7387040;19;20077;-79
2023/12/02 03:32:22;;;;;;;18.42;7.53;;;;;;;;;;7384968;19;20146;-78
2023/12/02 03:34:47;;;;;;;15.13;6.38;;;;;;;;;;7379507;19;20021;-79
2023/12/02 03:37:13;;;;;;;13.23;5.88;;;;;;;;;;7380089;19;20097;-78
2023/12/02 03:39:38;;;;;;;13.95;6.63;;;;;;;;;;7381638;19;19999;-78
2023/12/02 03:42:04;;;;;;;10.88;6.03;;;;;;;;;;7404379;19;20101;-78
2023/12/02 03:44:29;;;;;;;11.73;5.85;;;;;;;;;;7383094;19;20010;-78
2023/12/02 03:46:54;;;;;;;12.13;5.68;;;;;;;;;;7384569;19;20026;-79
2023/12/02 03:49:21;;;;;;;11.20;5.75;;;;;;;;;;7387532;19;20465;-78
2023/12/02 03:51:46;;;;;;;14.27;6.72;;;;;;;;;;7386557;19;20014;-78
2023/12/02 03:54:11;;;;;;;14.27;6.05;;;;;;;;;;7411090;19;20013;-79
2023/12/02 03:56:38;;;;;;;10.77;5.90;;;;;;;;;;7394839;19;20010;-78
2023/12/02 03:59:04;;;;;;;10.80;5.70;;;;;;;;;;7382083;19;20062;-78
2023/12/02 04:01:29;;;;;;;12.60;6.03;;;;;;;;;;7387186;19;20033;-78
2023/12/02 04:03:54;;;;;;;11.73;6.20;;;;;;;;;;7386257;19;20015;-78
2023/12/02 04:06:20;;;;;;;9.70;5.47;;;;;;;;;;7414628;19;20006;-78
2023/12/02 04:08:45;;;;;;;10.18;5.43;;;;;;;;;;7395722;19;20417;-78
2023/12/02 04:11:10;;;;;;;11.73;6.05;;;;;;;;;;7387942;19;20011;-79
2023/12/02 04:13:35;;;;;;;12.13;5.70;;;;;;;;;;7388330;19;20043;-78
2023/12/02 04:16:01;;;;;;;10.27;5.85;;;;;;;;;;7387640;19;20011;-78
2023/12/02 04:18:26;;;;;;;11.48;5.68;;;;;;;;;;7408719;19;20010;-78
2023/12/02 04:20:57;;;;;;;13.60;7.28;;;;;;;;;;7388198;19;20015;-78
2023/12/02 04:23:22;;;;;;;11.23;6.07;;;;;;;;;;7387710;19;20066;-78
2023/12/02 04:25:48;;;;;;;11.60;6.00;;;;;;;;;;7388162;19;20014;-78
2023/12/02 04:28:13;;;;;;;10.73;6.00;;;;;;;;;;7390552;19;20002;-78
2023/12/02 04:30:38;;;;;;;10.98;5.47;;;;;;;;;;7387257;19;20037;-78
2023/12/02 04:33:04;;;;;;;10.02;5.60;;;;;;;;;;7409767;19;19995;-78
2023/12/02 04:35:34;;;;;;;9.98;5.50;;;;;;;;;;7378090;19;20010;-78
2023/12/02 04:37:59;;;;;;;9.23;5.43;;;;;;;;;;7384468;19;19999;-78
2023/12/02 04:40:33;;;;;;;9.38;5.70;;;;;;;;;;7392707;19;20014;-78
2023/12/02 04:42:59;;;;;;;11.50;5.10;;;;;;;;;;7391060;19;20017;-78
2023/12/02 04:45:25;;;;;;;12.00;5.45;;;;;;;;;;7417137;19;20091;-78
2023/12/02 04:47:50;;;;;;;10.68;5.13;;;;;;;;;;7398152;19;20006;-78
2023/12/02 04:50:16;;;;;;;9.73;4.90;;;;;;;;;;7388636;19;20015;-77
2023/12/02 04:52:41;;;;;;;9.27;5.25;;;;;;;;;;7382557;19;20098;-78
2023/12/02 04:55:12;;;;;;;13.00;5.88;;;;;;;;;;7396323;19;20014;-78
2023/12/02 04:57:37;;;;;;;12.30;5.60;;;;;;;;;;7398510;19;20022;-78
2023/12/02 05:00:06;;;;;;;11.93;5.88;;;;;;;;;;7415260;19;20117;-78
2023/12/02 05:02:31;;;;;;;16.63;5.78;;;;;;;;;;7388630;19;20456;-78
2023/12/02 05:04:57;;;;;;;28.48;7.25;;;;;;;;;;7393864;19;20026;-78
2023/12/02 05:07:23;;;;;;;32.85;6.45;;;;;;;;;;7396943;19;20051;-78
2023/12/02 05:09:52;;;;;;;16.98;7.03;;;;;;;;;;7395656;19;20086;-78
2023/12/02 05:12:17;;;;;;;18.15;5.80;;;;;;;;;;7413981;19;20006;-78
2023/12/02 05:14:44;;;;;;;13.68;6.00;;;;;;;;;;7391326;19;20007;-79
2023/12/02 05:17:09;;;;;;;24.58;6.72;;;;;;;;;;7395343;19;20010;-78
2023/12/02 05:19:36;;;;;;;20.25;6.65;;;;;;;;;;7401210;19;20014;-79
2023/12/02 05:22:01;;;;;;;34.20;7.38;;;;;;;;;;7397329;19;20018;-79
2023/12/02 05:24:27;;;;;;;25.00;7.22;;;;;;;;;;7409601;19;20013;-79
2023/12/02 05:26:52;;;;;;;20.50;6.82;;;;;;;;;;7388747;19;20010;-78
2023/12/02 05:29:18;;;;;;;25.45;6.85;;;;;;;;;;7385318;19;20053;-79
2023/12/02 05:31:43;;;;;;;17.90;5.60;;;;;;;;;;7387508;19;20426;-78
2023/12/02 05:34:08;;;;;;;23.80;6.78;;;;;;;;;;7382226;19;20010;-77
2023/12/02 05:36:33;;;;;;;18.08;5.70;;;;;;;;;;7399585;19;20007;-79
2023/12/02 05:38:59;;;;;;;10.80;5.38;;;;;;;;;;7390153;19;20006;-79
2023/12/02 05:41:24;;;;;;;30.88;6.72;;;;;;;;;;7378653;19;20021;-78
2023/12/02 05:43:49;;;;;;;13.90;6.05;;;;;;;;;;7382177;19;20026;-77
2023/12/02 05:46:16;;;;;;;9.38;5.07;;;;;;;;;;7361932;19;19999;-77
2023/12/02 05:48:43;;;;;;;16.80;6.05;;;;;;;;;;7373051;19;19999;-77
2023/12/02 05:51:09;;;;;;;17.58;5.53;;;;;;;;;;7396141;19;20037;-78
2023/12/02 05:53:34;;;;;;;15.40;5.72;;;;;;;;;;7369036;19;20007;-76
2023/12/02 05:56:00;;;;;;;9.38;4.68;;;;;;;;;;7367327;19;20063;-79
2023/12/02 05:58:26;;;;;;;10.82;4.57;;;;;;;;;;7377241;19;20054;-77
2023/12/02 06:00:51;;;;;;;9.25;5.00;;;;;;;;;;7375000;19;20058;-77
2023/12/02 06:03:16;;;;;;;11.60;4.85;;;;;;;;;;7400129;19;20011;-77
2023/12/02 06:05:42;;;;;;;8.65;4.88;;;;;;;;;;7377279;19;20002;-78
2023/12/02 06:08:07;;;;;;;8.30;4.63;;;;;;;;;;7371965;19;20014;-77
2023/12/02 06:10:32;;;;;;;8.68;4.95;;;;;;;;;;7371127;19;20005;-77
2023/12/02 06:12:58;;;;;;;7.97;4.07;;;;;;;;;;7378106;19;20002;-77
2023/12/02 06:15:23;;;;;;;8.15;4.65;;;;;;;;;;7396831;19;19999;-78
2023/12/02 06:17:48;;;;;;;7.57;4.25;;;;;;;;;;7381032;19;20018;-78
2023/12/02 06:20:14;;;;;;;7.78;4.13;;;;;;;;;;7369460;19;20066;-76
2023/12/02 06:22:39;;;;;;;9.23;4.00;;;;;;;;;;7357280;19;20014;-76
2023/12/02 06:25:06;;;;;;;10.13;4.50;;;;;;;;;;7367316;19;20010;-77
2023/12/02 06:27:31;;;;;;;9.43;4.60;;;;;;;;;;7399407;19;20363;-78
2023/12/02 06:29:57;;;;;;;11.07;5.20;;;;;;;;;;7381737;19;20081;-78
2023/12/02 06:32:22;;;;;;;11.65;5.10;;;;;;;;;;7377242;19;20099;-77
2023/12/02 06:34:48;;;;;;;8.75;4.20;;;;;;;;;;7367895;19;20006;-76
2023/12/02 06:37:13;;;;;;;7.07;4.30;;;;;;;;;;7365664;19;20035;-77
2023/12/02 06:39:39;;;;;;;6.32;3.65;;;;;;;;;;7368206;19;19994;-77
2023/12/02 06:42:04;;;;;;;7.38;4.30;;;;;;;;;;7387856;19;20006;-76
2023/12/02 06:44:30;;;;;;;7.82;4.60;;;;;;;;;;7367033;19;20066;-77
2023/12/02 06:46:55;;;;;;;8.15;4.43;;;;;;;;;;7365386;19;20022;-77
2023/12/02 06:49:20;;;;;;;8.30;4.13;;;;;;;;;;7367899;19;20013;-77
2023/12/02 06:51:46;;;;;;;8.00;4.03;;;;;;;;;;7369594;19;20097;-77
2023/12/02 06:54:11;;;;;;;8.55;4.25;;;;;;;;;;7388566;19;19994;-79
2023/12/02 06:56:36;;;;;;;7.03;4.03;;;;;;;;;;7368926;19;20010;-77
2023/12/02 06:59:02;;;;;;;12.45;3.65;;;;;;;;;;7373055;19;20045;-77
2023/12/02 07:01:29;;;;;;;5.78;3.50;;;;;;;;;;7375818;19;20509;-77
2023/12/02 07:03:56;;;;;;;7.32;3.63;;;;;;;;;;7372718;19;20000;-76
2023/12/02 07:06:21;;;;;;;7.10;4.43;;;;;;;;;;7397575;19;20010;-77
2023/12/02 07:08:51;;;;;;;8.48;4.40;;;;;;;;;;7372911;19;20018;-77
2023/12/02 07:11:16;;;;;;;7.25;4.00;;;;;;;;;;7369746;19;20003;-77
2023/12/02 07:13:42;;;;;;;7.05;4.22;;;;;;;;;;7367733;19;20464;-77
2023/12/02 07:16:08;;;;;;;7.07;4.03;;;;;;;;;;7367672;19;20031;-77
2023/12/02 07:18:33;;;;;;;9.68;4.32;;;;;;;;;;7392161;19;20445;-77
2023/12/02 07:20:59;;;;;;;7.05;4.18;;;;;;;;;;7369350;19;20094;-77
2023/12/02 07:23:31;;;;;;;6.57;3.92;;;;;;;;;;7367567;19;20003;-77
2023/12/02 07:25:56;;;;;;;10.50;5.05;;;;;;;;;;7370387;19;20006;-77
2023/12/02 07:28:22;;;;;;;10.27;4.93;;;;;;;;;;7370633;19;19999;-77
2023/12/02 07:30:50;;;;;;;6.70;3.95;;;;;;;;;;7369982;19;20066;-77
2023/12/02 07:33:18;;;;;;;7.50;4.20;;;;;;;;;;7393210;19;20010;-77
2023/12/02 07:35:43;;;;;;;9.38;4.25;;;;;;;;;;7372200;19;20035;-78
2023/12/02 07:38:08;;;;;;;8.95;4.18;;;;;;;;;;7374834;19;19999;-77
2023/12/02 07:40:35;;;;;;;8.57;4.57;;;;;;;;;;7370025;19;20496;-76
2023/12/02 07:43:00;;;;;;;6.63;3.85;;;;;;;;;;7368235;19;20010;-78
2023/12/02 07:45:25;;;;;;;8.55;4.78;;;;;;;;;;7390556;19;20033;-76
2023/12/02 07:47:51;;;;;;;6.90;3.75;;;;;;;;;;7368492;19;20006;-78
2023/12/02 07:50:16;;;;;;;9.00;4.80;;;;;;;;;;7372075;19;19998;-77
2023/12/02 07:52:42;;;;;;;8.02;4.72;;;;;;;;;;7367293;19;20212;-77
2023/12/02 07:55:07;;;;;;;9.80;4.63;;;;;;;;;;7367745;19;20006;-76
2023/12/02 07:57:33;;;;;;;14.02;5.00;;;;;;;;;;7391117;19;20034;-76
2023/12/02 07:59:58;;;;;;;9.32;4.60;;;;;;;;;;7368467;19;20005;-76
2023/12/02 08:02:24;;;;;;;9.95;5.05;;;;;;;;;;7366998;19;20006;-76
2023/12/02 08:04:49;;;;;;;8.52;4.78;;;;;;;;;;7367461;19;20007;-77
2023/12/02 08:07:15;;;;;;;8.15;4.72;;;;;;;;;;7369474;19;20059;-77
2023/12/02 08:09:40;;;;;;;6.03;3.33;;;;;;;;;;7372759;19;20581;-77
2023/12/02 08:12:05;;;;;;;16.80;5.57;;;;;;;;;;7380585;19;20126;-69
2023/12/02 08:14:31;;;;;;;8.80;4.80;;;;;;;;;;7362685;19;20023;-70
2023/12/02 08:16:56;;;;;;;8.85;5.13;;;;;;;;;;7372865;19;20048;-77
2023/12/02 08:19:21;;;;;;;8.88;5.00;;;;;;;;;;7382848;19;20015;-79
2023/12/02 08:21:47;;;;;;;19.17;9.82;;;;;;;;;;7379663;19;20013;-77
2023/12/02 08:24:13;;;;;;;11.50;6.80;;;;;;;;;;7389076;19;20483;-77
2023/12/02 08:26:38;;;;;;;8.32;4.47;;;;;;;;;;7364207;19;20014;-76
2023/12/02 08:29:04;;;;;;;5.65;3.47;;;;;;;;;;7364783;19;20756;-78
2023/12/02 08:31:30;;;;;;;8.88;5.30;;;;;;;;;;7365199;19;19998;-78
2023/12/02 08:33:55;;;;;;;9.98;5.57;;;;;;;;;;7363396;19;20014;-77
2023/12/02 08:36:21;;;;;;;8.88;5.10;;;;;;;;;;7386721;19;20023;-76
2023/12/02 08:38:46;;;;;;;10.50;5.47;;;;;;;;;;7377334;19;20007;-76
2023/12/02 08:41:11;;;;;;;10.38;5.28;;;;;;;;;;7375693;19;20007;-77
2023/12/02 08:43:37;;;;;;;6.82;4.20;;;;;;;;;;7378739;19;20011;-76
2023/12/02 08:46:02;;;;;;;9.65;4.47;;;;;;;;;;7379559;19;20081;-77
2023/12/02 08:48:28;;;;;;;8.85;4.95;;;;;;;;;;7401055;19;20497;-76
2023/12/02 08:50:53;;;;;;;12.63;5.43;;;;;;;;;;7378580;19;20015;-77
2023/12/02 08:53:19;;;;;;;10.68;6.18;;;;;;;;;;7375836;19;20014;-76
2023/12/02 08:55:44;;;;;;;10.38;5.05;;;;;;;;;;7371197;19;20010;-76
2023/12/02 08:58:09;;;;;;;9.98;5.13;;;;;;;;;;7375598;19;20006;-75
2023/12/02 09:00:35;;;;;;;9.00;5.25;;;;;;;;;;7376132;19;20014;-77
2023/12/02 09:03:00;;;;;;;9.88;5.15;;;;;;;;;;7387122;19;20450;-77
2023/12/02 09:05:26;;;;;;;8.90;5.47;;;;;;;;;;7357296;19;20687;-75
2023/12/02 09:07:51;;;;;;;9.80;5.00;;;;;;;;;;7357957;19;20022;-75
2023/12/02 09:10:17;;;;;;;10.60;5.15;;;;;;;;;;7358565;19;20010;-76
2023/12/02 09:12:42;;;;;;;9.48;4.55;;;;;;;;;;7361551;19;20020;-75
2023/12/02 09:15:29;;;;;;;8.02;4.78;;;;;;;;;;7381583;19;20030;-76
2023/12/02 09:18:09;;;;;;;11.25;5.07;;;;;;;;;;7363043;19;20010;-76
2023/12/02 09:20:53;;;;;;;9.48;5.35;;;;;;;;;;7359343;19;20007;-75
2023/12/02 09:23:20;;;;;;;9.88;5.30;;;;;;;;;;7359137;19;20006;-74
2023/12/02 09:25:46;;;;;;;17.23;7.88;;;;;;;;;;7365683;19;20138;-73
2023/12/02 09:28:15;;;;;;;9.77;5.75;;;;;;;;;;7366623;19;20018;-77
2023/12/02 09:30:50;;;;;;;9.77;5.65;;;;;;;;;;7369243;19;20011;-76
2023/12/02 09:33:16;;;;;;;11.27;5.95;;;;;;;;;;7389572;19;20002;-76
2023/12/02 09:35:42;;;;;;;9.80;6.00;;;;;;;;;;7367613;19;20099;-76
2023/12/02 09:38:08;;;;;;;10.25;5.80;;;;;;;;;;7370976;19;20006;-72
2023/12/02 09:40:36;;;;;;;12.45;6.10;;;;;;;;;;7368394;19;20134;-67
2023/12/02 09:43:04;;;;;;;11.38;5.78;;;;;;;;;;7367726;19;20014;-74
2023/12/02 09:45:42;;;;;;;10.32;5.53;;;;;;;;;;7392947;19;20031;-78
2023/12/02 09:48:23;;;;;;;9.25;4.45;;;;;;;;;;7370823;19;19999;-76
2023/12/02 09:51:12;;;;;;;11.32;4.88;;;;;;;;;;7369491;19;20031;-76
2023/12/02 09:53:42;;;;;;;18.70;6.50;;;;;;;;;;7367708;19;20014;-76
2023/12/02 09:56:29;;;;;;;12.75;6.13;;;;;;;;;;7372613;19;20009;-76
2023/12/02 09:59:11;;;;;;;14.02;6.10;;;;;;;;;;7377714;19;20011;-77
2023/12/02 10:01:47;;;;;;;12.48;5.93;;;;;;;;;;7384842;19;20128;-76
2023/12/02 10:04:23;;;;;;;10.73;5.55;;;;;;;;;;7381361;19;20040;-78
2023/12/02 10:07:02;;;;;;;12.15;6.07;;;;;;;;;;7391732;19;20023;-77
2023/12/02 10:09:48;;;;;;;10.48;5.53;;;;;;;;;;7403187;19;20007;-76
2023/12/02 10:12:26;;;;;;;11.35;5.95;;;;;;;;;;7368604;19;20301;-75
2023/12/02 10:15:01;;;;;;;13.82;5.88;;;;;;;;;;7369040;19;20029;-75
2023/12/02 10:17:30;;;;;;;17.60;6.60;;;;;;;;;;7367670;19;20018;-76
2023/12/02 10:20:01;;;;;;;12.95;6.20;;;;;;;;;;7369768;19;20046;-73
2023/12/02 10:22:31;;;;;;;19.23;6.28;;;;;;;;;;7366938;19;20015;-75
2023/12/02 10:25:04;;;;;;;15.63;6.57;;;;;;;;;;7367673;19;20018;-74
2023/12/02 10:27:36;;;;;;;11.38;5.75;;;;;;;;;;7389945;19;20552;-76
2023/12/02 10:30:16;;;;;;;9.32;5.78;;;;;;;;;;7368110;19;20029;-76
2023/12/02 10:33:06;;;;;;;11.07;5.80;;;;;;;;;;7364537;19;20018;-77
2023/12/02 10:35:47;;;;;;;10.20;5.53;;;;;;;;;;7365939;19;20025;-77
2023/12/02 10:38:27;;;;;;;11.27;5.72;;;;;;;;;;7365957;19;20014;-75
2023/12/02 10:41:34;;;;;;;14.20;6.10;;;;;;;;;;7364456;19;20397;-78
2023/12/02 10:44:03;;;;;;;10.55;5.60;;;;;;;;;;7364158;19;20014;-76
2023/12/02 10:46:31;;;;;;;74.88;30.42;;;;;;;;;;7365625;19;20011;-75
2023/12/02 10:48:58;;;;;;;11.48;5.82;;;;;;;;;;7366964;19;20122;-75
2023/12/02 10:51:26;;;;;;;13.35;5.80;;;;;;;;;;7388942;19;20067;-75
2023/12/02 10:53:54;;;;;;;11.77;5.43;;;;;;;;;;7363468;19;20022;-75
2023/12/02 10:56:23;;;;;;;11.40;5.20;;;;;;;;;;7365296;19;20018;-73
2023/12/02 10:58:49;;;;;;;8.35;4.88;;;;;;;;;;7364943;19;20009;-76
2023/12/02 11:01:24;;;;;;;9.88;4.95;;;;;;;;;;7367024;19;20590;-75
2023/12/02 11:04:16;;;;;;;7.35;4.65;;;;;;;;;;7370904;19;20329;-75
2023/12/02 11:06:49;;;;;;;9.88;4.93;;;;;;;;;;7371098;19;20007;-76
2023/12/02 11:09:48;;;;;;;12.38;5.20;;;;;;;;;;7393586;19;20035;-77
2023/12/02 11:12:26;;;;;;;7.22;4.15;;;;;;;;;;7367664;19;20016;-76
2023/12/02 11:15:09;;;;;;;8.32;4.18;;;;;;;;;;7365269;19;20061;-75
2023/12/02 11:17:39;;;;;;;8.00;4.65;;;;;;;;;;7368165;19;20805;-74
2023/12/02 11:20:25;;;;;;;9.13;4.43;;;;;;;;;;7365446;19;20059;-76
2023/12/02 11:23:02;;;;;;;9.73;4.25;;;;;;;;;;7365065;19;20475;-76
2023/12/02 11:25:52;;;;;;;8.68;4.47;;;;;;;;;;7364637;19;20002;-76
2023/12/02 11:28:20;;;;;;;9.80;4.88;;;;;;;;;;7367111;19;20019;-76
2023/12/02 11:31:20;;;;;;;12.75;5.93;;;;;;;;;;7368445;19;20039;-76
2023/12/02 11:34:18;;;;;;;25.73;10.93;;;;;;;;;;7363653;19;20079;-76
2023/12/02 11:36:58;;;;;;;24.23;5.97;;;;;;;;;;7363404;19;20031;-74
2023/12/02 11:39:38;;;;;;;11.85;5.03;;;;;;;;;;7388335;19;19995;-75
2023/12/02 11:42:18;;;;;;;7.70;4.68;;;;;;;;;;7366020;19;20014;-75
2023/12/02 11:45:02;;;;;;;12.65;5.32;;;;;;;;;;7363579;19;20010;-74
2023/12/02 11:47:55;;;;;;;9.70;5.30;;;;;;;;;;7363674;19;20021;-75
2023/12/02 11:50:51;;;;;;;9.88;4.97;;;;;;;;;;7365648;19;20022;-75
2023/12/02 11:53:44;;;;;;;11.07;5.70;;;;;;;;;;7363662;19;20010;-77
2023/12/02 11:56:16;;;;;;;12.13;5.85;;;;;;;;;;7365439;19;20010;-76
2023/12/02 11:58:54;;;;;;;14.20;6.25;;;;;;;;;;7364489;19;20390;-75
2023/12/02 12:01:38;;;;;;;12.65;6.57;;;;;;;;;;7365628;19;20018;-77
2023/12/02 12:04:24;;;;;;;12.73;6.03;;;;;;;;;;7364435;19;20511;-77
2023/12/02 12:07:08;;;;;;;11.52;6.43;;;;;;;;;;7364219;19;20007;-75
2023/12/02 12:10:01;;;;;;;11.32;6.20;;;;;;;;;;7386258;19;20588;-76
2023/12/02 12:12:29;;;;;;;9.38;5.50;;;;;;;;;;7367565;19;20074;-76
2023/12/02 12:14:55;;;;;;;12.35;6.68;;;;;;;;;;7366283;19;20027;-77
2023/12/02 12:17:21;;;;;;;10.93;6.05;;;;;;;;;;7364463;19;20010;-75
2023/12/02 12:19:50;;;;;;;10.32;6.10;;;;;;;;;;7367605;19;20037;-77
2023/12/02 12:22:16;;;;;;;11.05;5.90;;;;;;;;;;7367087;19;20014;-76
2023/12/02 12:24:41;;;;;;;10.73;6.38;;;;;;;;;;7364902;19;20002;-76
2023/12/02 12:27:07;;;;;;;10.68;6.07;;;;;;;;;;7386553;19;20015;-76
2023/12/02 12:29:32;;;;;;;11.55;6.07;;;;;;;;;;7366888;19;20010;-76
2023/12/02 12:31:59;;;;;;;11.05;5.82;;;;;;;;;;7369249;19;20014;-76
2023/12/02 12:34:27;;;;;;;15.13;7.28;;;;;;;;;;7370499;19;20014;-76
2023/12/02 12:36:52;;;;;;;10.80;5.88;;;;;;;;;;7378123;19;20002;-76
2023/12/02 12:39:19;;;;;;;13.50;6.82;;;;;;;;;;7401042;19;20023;-78
2023/12/02 12:41:47;;;;;;;10.38;5.00;;;;;;;;;;7379066;19;20006;-77
2023/12/02 12:44:12;;;;;;;11.15;6.28;;;;;;;;;;7379372;19;20018;-76
2023/12/02 12:46:40;;;;;;;11.10;6.00;;;;;;;;;;7369617;19;20095;-75
2023/12/02 12:49:07;;;;;;;12.77;6.63;;;;;;;;;;7371859;19;20068;-76
2023/12/02 12:51:35;;;;;;;11.02;5.65;;;;;;;;;;7393517;19;20010;-75
2023/12/02 12:54:02;;;;;;;10.85;5.75;;;;;;;;;;7370781;19;20010;-76
2023/12/02 12:56:39;;;;;;;13.07;6.18;;;;;;;;;;7369007;19;20011;-75
2023/12/02 12:59:10;;;;;;;10.70;6.28;;;;;;;;;;7373652;19;20006;-76
2023/12/02 13:01:41;;;;;;;12.57;7.03;;;;;;;;;;7379891;19;20026;-77
2023/12/02 13:04:06;;;;;;;12.50;7.20;;;;;;;;;;7379337;19;20017;-76
2023/12/02 13:06:42;;;;;;;13.70;6.72;;;;;;;;;;7404185;19;20452;-76
2023/12/02 13:09:09;;;;;;;12.23;6.82;;;;;;;;;;7382252;19;20014;-77
2023/12/02 13:11:53;;;;;;;12.55;6.65;;;;;;;;;;7381686;19;20010;-74
2023/12/02 13:14:23;;;;;;;13.90;7.35;;;;;;;;;;7378478;19;20003;-76
2023/12/02 13:16:50;;;;;;;11.13;6.60;;;;;;;;;;7374635;19;20007;-76
2023/12/02 13:19:16;;;;;;;15.30;7.00;;;;;;;;;;7371035;19;20042;-77
2023/12/02 13:21:42;;;;;;;14.02;7.50;;;;;;;;;;7373539;19;20027;-76
2023/12/02 13:24:08;;;;;;;12.73;6.82;;;;;;;;;;7389508;19;20003;-76
2023/12/02 13:26:36;;;;;;;10.90;6.63;;;;;;;;;;7370610;19;20006;-75
2023/12/02 13:29:04;;;;;;;11.80;7.00;;;;;;;;;;7370904;19;20006;-76
2023/12/02 13:31:34;;;;;;;12.90;6.57;;;;;;;;;;7370053;19;20520;-77
2023/12/02 13:34:02;;;;;;;11.90;7.00;;;;;;;;;;7370897;19;20025;-76
2023/12/02 13:36:43;;;;;;;10.93;7.07;;;;;;;;;;7392231;19;20011;-77
2023/12/02 13:39:24;;;;;;;12.95;7.38;;;;;;;;;;7373411;19;20011;-77
2023/12/02 13:41:51;;;;;;;13.38;7.07;;;;;;;;;;7363162;19;20010;-77
2023/12/02 13:44:17;;;;;;;11.52;6.55;;;;;;;;;;7371138;19;20015;-78
2023/12/02 13:46:49;;;;;;;11.13;6.10;;;;;;;;;;7374035;19;20044;-77
2023/12/02 13:49:20;;;;;;;9.68;5.82;;;;;;;;;;7373825;19;20710;-77
2023/12/02 13:51:55;;;;;;;;;;;;;;;;;;7375906;19;20018;-77
2023/12/02 13:54:42;;;;;;;10.38;5.38;;;;;;;;;;7391677;19;19927;-75
2023/12/02 13:57:25;;;;;;;10.40;5.95;;;;;;;;;;7372192;19;20007;-78
2023/12/02 13:59:57;;;;;;;12.85;6.10;;;;;;;;;;7371592;19;20027;-76
2023/12/02 14:02:55;;;;;;;14.38;6.10;;;;;;;;;;7371173;19;20026;-75
2023/12/02 14:05:37;;;;;;;14.40;6.50;;;;;;;;;;7371677;19;20006;-75
2023/12/02 14:08:04;;;;;;;11.25;6.55;;;;;;;;;;7371174;19;20006;-75
2023/12/02 14:10:32;;;;;;;12.23;5.80;;;;;;;;;;7371352;19;20003;-75
2023/12/02 14:13:17;;;;;;;11.82;6.65;;;;;;;;;;7371052;19;20007;-76
2023/12/02 14:16:04;;;;;;;18.13;7.43;;;;;;;;;;7365747;19;20023;-75
2023/12/02 14:18:42;;;;;;;13.30;7.20;;;;;;;;;;7390630;19;19998;-75
2023/12/02 14:21:36;;;;;;;12.68;6.80;;;;;;;;;;7369352;19;20010;-76
2023/12/02 14:24:41;;;;;;;12.43;7.35;;;;;;;;;;7361575;19;20014;-76
2023/12/02 14:27:35;;;;;;;15.48;8.52;;;;;;;;;;7367263;19;20003;-76
2023/12/02 14:30:10;;;;;;;12.15;6.38;;;;;;;;;;7369310;19;20014;-76
2023/12/02 14:33:09;;;;;;;13.10;7.03;;;;;;;;;;7367330;19;20046;-75
2023/12/02 14:35:45;;;;;;;12.80;7.22;;;;;;;;;;7367418;19;20068;-75
2023/12/02 14:38:21;;;;;;;15.07;7.85;;;;;;;;;;7370998;19;20342;-75
2023/12/02 14:41:29;;;;;;;13.85;7.03;;;;;;;;;;7371213;19;20010;-75
2023/12/02 14:44:15;;;;;;;12.88;7.72;;;;;;;;;;7369779;19;20090;-76
2023/12/02 14:47:14;;;;;;;13.60;7.00;;;;;;;;;;7371083;19;20017;-76